Time;durP1;ratioP1;P1;durP2;ratioP2;P2;SDS_P1;SDS_P2;PMS_P1;PMS_P2;Temp;Humidity;BMP_temperature;BMP_pressure;BME280_temperature;BME280_humidity;BME280_pressure;Samples;Min_cycle;Max_cycle;Signal;HPM_P1;HPM_P2
2022/07/16 00:03:40;;;;;;;3.53;3.10;;;;;;;16.21;62.38;98569.88;5062605;28;20591;-72
2022/07/16 00:06:07;;;;;;;4.93;3.10;;;;;;;16.17;62.42;98570.25;5065394;28;20218;-72
2022/07/16 00:08:33;;;;;;;3.20;2.90;;;;;;;16.13;63.00;98569.69;5066438;28;20646;-72
2022/07/16 00:11:00;;;;;;;3.70;3.27;;;;;;;16.14;62.68;98568.69;5063862;28;20218;-72
2022/07/16 00:13:26;;;;;;;4.40;3.13;;;;;;;16.13;62.74;98568.00;5060606;28;20306;-72
2022/07/16 00:15:54;;;;;;;4.63;3.50;;;;;;;16.08;62.84;98580.88;5064968;28;20219;-72
2022/07/16 00:21:06;;;;;;;3.57;3.27;;;;;;;16.00;63.14;98575.34;5055118;28;20251;-72
2022/07/16 00:23:33;;;;;;;4.73;3.33;;;;;;;16.01;63.12;98577.03;5062763;28;20209;-72
2022/07/16 00:25:59;;;;;;;3.57;3.27;;;;;;;15.92;63.22;98575.13;5065693;28;20672;-73
2022/07/16 00:28:26;;;;;;;5.37;3.33;;;;;;;15.95;62.46;98572.22;5065286;28;20231;-72
2022/07/16 00:30:52;;;;;;;3.60;2.73;;;;;;;15.90;62.70;98571.75;5061246;28;20215;-72
2022/07/16 00:33:19;;;;;;;4.83;3.17;;;;;;;15.86;62.98;98573.81;5062609;28;20224;-72
2022/07/16 00:35:46;;;;;;;3.07;2.83;;;;;;;15.81;63.23;98575.16;5064556;28;20211;-72
2022/07/16 00:38:13;;;;;;;4.30;3.43;;;;;;;15.81;63.41;98577.81;5061919;28;20238;-72
2022/07/16 00:40:40;;;;;;;6.80;3.67;;;;;;;15.78;63.38;98570.97;5060340;28;20212;-72
2022/07/16 00:43:11;;;;;;;3.23;2.83;;;;;;;15.74;63.50;98565.97;5062076;28;20214;-72
2022/07/16 00:45:37;;;;;;;3.73;2.83;;;;;;;15.75;63.66;98573.00;5050511;28;20694;-73
2022/07/16 00:48:05;;;;;;;4.17;3.10;;;;;;;15.75;63.37;98578.34;5065344;28;20239;-72
2022/07/16 00:50:31;;;;;;;5.17;3.20;;;;;;;15.72;63.63;98567.94;5061512;28;20228;-72
2022/07/16 00:53:01;;;;;;;4.37;3.30;;;;;;;15.69;63.83;98568.19;5062115;28;20208;-73
2022/07/16 00:55:28;;;;;;;3.90;3.37;;;;;;;15.68;64.04;98572.69;5065393;28;20251;-73
2022/07/16 00:57:55;;;;;;;3.93;2.93;;;;;;;15.66;64.52;98581.78;5065055;28;20231;-73
2022/07/16 01:00:22;;;;;;;3.53;3.10;;;;;;;15.63;64.40;98580.19;5061055;28;20214;-73
2022/07/16 01:02:49;;;;;;;4.77;3.40;;;;;;;15.60;64.89;98574.28;5059168;28;20231;-72
2022/07/16 01:05:15;;;;;;;4.50;3.60;;;;;;;15.50;67.04;98578.66;5063539;28;20223;-73
2022/07/16 01:07:43;;;;;;;7.37;3.50;;;;;;;15.38;68.29;98579.66;5064881;28;20672;-73
2022/07/16 01:10:13;;;;;;;4.77;3.40;;;;;;;15.25;69.31;98578.94;5058988;28;20208;-73
2022/07/16 01:12:39;;;;;;;4.93;3.50;;;;;;;15.12;70.79;98578.22;5061951;28;20216;-73
2022/07/16 01:15:07;;;;;;;5.33;3.57;;;;;;;14.95;71.75;98576.94;5064890;28;20222;-73
2022/07/16 01:17:34;;;;;;;5.60;3.97;;;;;;;14.83;72.78;98577.03;5064789;28;20703;-73
2022/07/16 01:20:00;;;;;;;6.40;3.77;;;;;;;14.80;71.89;98582.63;5061383;28;20216;-73
2022/07/16 01:22:27;;;;;;;4.37;3.30;;;;;;;14.76;71.71;98581.16;5060985;28;20238;-73
2022/07/16 01:24:55;;;;;;;5.00;3.77;;;;;;;14.70;71.22;98581.66;5064900;28;20572;-73
2022/07/16 01:27:22;;;;;;;5.00;3.67;;;;;;;14.64;70.87;98582.13;5065035;28;20308;-73
2022/07/16 01:29:48;;;;;;;3.90;3.50;;;;;;;14.66;71.79;98581.03;5053259;28;20666;-74
2022/07/16 01:32:15;;;;;;;4.17;3.13;;;;;;;14.63;71.98;98581.31;5059641;28;20216;-72
2022/07/16 01:34:42;;;;;;;4.90;3.70;;;;;;;14.50;74.56;98585.03;5052983;28;20216;-73
2022/07/16 01:37:10;;;;;;;5.53;3.93;;;;;;;14.34;75.35;98584.50;5060230;28;20722;-73
2022/07/16 01:39:40;;;;;;;5.83;3.70;;;;;;;14.23;76.30;98584.50;5061100;28;20227;-72
2022/07/16 01:42:10;;;;;;;5.57;3.77;;;;;;;14.19;76.70;98591.00;5060501;28;20307;-73
2022/07/16 01:44:38;;;;;;;3.90;3.60;;;;;;;14.17;76.70;98584.94;5064927;28;20212;-72
2022/07/16 01:47:06;;;;;;;5.90;4.00;;;;;;;14.14;76.65;98582.50;5064360;28;20251;-72
2022/07/16 01:49:34;;;;;;;4.70;3.40;;;;;;;14.19;75.89;98585.69;5060971;28;20216;-73
2022/07/16 01:52:05;;;;;;;3.37;3.07;;;;;;;14.25;73.76;98577.25;5061644;28;20226;-73
2022/07/16 01:54:32;;;;;;;4.07;3.37;;;;;;;14.24;73.12;98579.06;5065138;28;20215;-73
2022/07/16 01:56:58;;;;;;;4.43;3.70;;;;;;;14.28;72.27;98584.97;5063710;28;20237;-73
2022/07/16 01:59:26;;;;;;;3.43;3.13;;;;;;;14.31;72.13;98579.44;5059222;28;20223;-73
2022/07/16 02:01:53;;;;;;;3.83;3.10;;;;;;;14.38;71.85;98575.34;5061715;28;20220;-72
2022/07/16 02:04:19;;;;;;;4.90;3.60;;;;;;;14.36;72.61;98577.28;5064826;28;20211;-73
2022/07/16 02:06:46;;;;;;;5.00;3.40;;;;;;;14.40;72.20;98584.03;5063792;28;20215;-73
2022/07/16 02:09:12;;;;;;;4.10;3.07;;;;;;;14.38;70.99;98580.66;5060678;28;20725;-72
2022/07/16 02:11:39;;;;;;;4.83;3.03;;;;;;;14.41;70.14;98583.06;5061200;28;20222;-73
2022/07/16 02:14:05;;;;;;;4.07;3.53;;;;;;;14.43;69.93;98578.50;5064393;28;20660;-73
2022/07/16 02:16:33;;;;;;;4.53;3.20;;;;;;;14.46;69.61;98583.56;5064155;28;20222;-73
2022/07/16 02:19:00;;;;;;;4.30;3.30;;;;;;;14.42;69.75;98587.44;5053232;28;20219;-71
2022/07/16 02:21:26;;;;;;;4.37;2.90;;;;;;;14.42;69.43;98585.59;5060873;28;20235;-72
2022/07/16 02:23:53;;;;;;;3.97;3.23;;;;;;;14.41;69.76;98585.72;5062866;28;20216;-73
2022/07/16 02:26:19;;;;;;;5.13;3.43;;;;;;;14.36;69.89;98585.25;5064600;28;20216;-74
2022/07/16 02:28:46;;;;;;;4.83;3.80;;;;;;;14.43;70.36;98574.00;5060794;28;20216;-72
2022/07/16 02:31:12;;;;;;;4.00;3.60;;;;;;;14.41;69.70;98585.72;5060763;28;20209;-71
2022/07/16 02:33:40;;;;;;;3.80;3.13;;;;;;;14.43;68.97;98583.81;5064033;28;20218;-71
2022/07/16 02:36:07;;;;;;;3.90;3.33;;;;;;;14.41;69.14;98578.59;5060567;28;20205;-71
2022/07/16 02:38:34;;;;;;;3.33;3.00;;;;;;;14.34;69.57;98577.38;5060497;28;20243;-72
2022/07/16 02:41:01;;;;;;;5.93;3.23;;;;;;;14.31;69.60;98568.81;5060620;28;20208;-71
2022/07/16 02:43:27;;;;;;;3.47;3.10;;;;;;;14.29;69.71;98578.72;5063686;28;20216;-72
2022/07/16 02:45:54;;;;;;;5.47;3.17;;;;;;;14.30;70.02;98572.44;5064274;28;20215;-71
2022/07/16 02:48:20;;;;;;;4.77;3.00;;;;;;;14.33;69.64;98572.19;5061252;28;20973;-71
2022/07/16 02:50:48;;;;;;;3.33;3.03;;;;;;;14.25;69.86;98569.28;5058923;28;20211;-71
2022/07/16 02:53:15;;;;;;;3.20;2.90;;;;;;;14.25;69.98;98585.22;5064977;28;20215;-71
2022/07/16 02:55:41;;;;;;;4.73;3.03;;;;;;;14.23;70.58;98577.38;5067836;28;20214;-72
2022/07/16 02:58:08;;;;;;;3.37;2.97;;;;;;;14.19;70.51;98575.06;5065008;28;20245;-72
2022/07/16 03:00:35;;;;;;;3.87;3.00;;;;;;;14.20;71.37;98584.72;5063747;28;20470;-72
2022/07/16 03:03:01;;;;;;;5.03;2.97;;;;;;;14.14;71.81;98582.50;5066238;28;20223;-71
2022/07/16 03:05:28;;;;;;;3.80;3.40;;;;;;;14.09;72.03;98595.28;5067726;28;20213;-71
2022/07/16 03:07:56;;;;;;;4.37;3.07;;;;;;;14.03;72.97;98593.09;5065315;28;20223;-72
2022/07/16 03:10:23;;;;;;;3.93;3.17;;;;;;;14.00;73.50;98580.06;5063908;28;20208;-72
2022/07/16 03:12:49;;;;;;;3.70;3.23;;;;;;;13.97;73.82;98578.47;5065582;28;20208;-72
2022/07/16 03:15:16;;;;;;;4.20;3.40;;;;;;;13.94;74.65;98585.84;5066212;28;20211;-71
2022/07/16 03:17:43;;;;;;;3.87;3.30;;;;;;;13.93;74.56;98584.97;5065098;28;20708;-72
2022/07/16 03:20:11;;;;;;;4.73;3.53;;;;;;;13.87;74.70;98585.44;5063345;28;20688;-71
2022/07/16 03:22:43;;;;;;;3.50;3.20;;;;;;;13.83;75.76;98583.13;5065402;28;20216;-73
2022/07/16 03:25:11;;;;;;;3.93;3.53;;;;;;;13.81;75.76;98585.06;5067271;28;20207;-73
2022/07/16 03:27:38;;;;;;;3.93;3.10;;;;;;;13.81;75.92;98585.06;5064770;28;20227;-72
2022/07/16 03:30:06;;;;;;;3.67;3.30;;;;;;;13.80;75.16;98578.03;5063141;28;20216;-72
2022/07/16 03:32:32;;;;;;;5.17;3.73;;;;;;;13.79;74.47;98586.97;5058491;28;20216;-72
2022/07/16 03:34:59;;;;;;;5.13;4.00;;;;;;;13.76;73.29;98581.91;5067136;28;20412;-72
2022/07/16 03:37:25;;;;;;;5.33;3.97;;;;;;;13.78;72.64;98578.19;5064643;28;20708;-72
2022/07/16 03:39:52;;;;;;;4.57;3.50;;;;;;;13.79;73.04;98585.19;5063398;28;20256;-72
2022/07/16 03:42:19;;;;;;;7.00;3.97;;;;;;;13.89;72.52;98593.31;5063255;28;20218;-72
2022/07/16 03:44:46;;;;;;;4.67;3.50;;;;;;;13.91;73.58;98591.38;5066705;28;20699;-72
2022/07/16 03:47:12;;;;;;;7.70;4.00;;;;;;;13.85;73.73;98587.38;5065309;28;20218;-72
2022/07/16 03:49:39;;;;;;;4.03;3.60;;;;;;;13.80;74.47;98586.88;5063067;28;20212;-72
2022/07/16 03:52:05;;;;;;;5.30;3.97;;;;;;;13.67;75.81;98593.19;5064597;28;20216;-72
2022/07/16 03:54:32;;;;;;;5.07;3.77;;;;;;;13.52;77.99;98600.47;5066513;28;20224;-72
2022/07/16 03:56:58;;;;;;;5.47;3.90;;;;;;;13.38;79.37;98599.84;5065338;28;20572;-73
2022/07/16 03:59:26;;;;;;;6.47;4.00;;;;;;;13.36;80.03;98604.38;5062940;28;20246;-72
2022/07/16 04:01:53;;;;;;;4.70;4.20;;;;;;;13.25;81.52;98606.97;5064131;28;20294;-73
2022/07/16 04:04:19;;;;;;;5.17;3.90;;;;;;;13.23;81.68;98603.59;5066271;28;20211;-72
2022/07/16 04:06:46;;;;;;;4.87;4.30;;;;;;;13.21;82.40;98610.81;5065285;28;20260;-72
2022/07/16 04:09:12;;;;;;;5.27;3.87;;;;;;;13.20;82.14;98609.97;5060853;28;20219;-72
2022/07/16 04:11:39;;;;;;;7.10;4.23;;;;;;;13.16;82.93;98602.34;5063281;28;20212;-72
2022/07/16 04:14:05;;;;;;;4.80;3.73;;;;;;;13.21;82.63;98616.13;5066390;28;20214;-72
2022/07/16 04:16:33;;;;;;;6.57;4.00;;;;;;;13.14;83.09;98617.53;5065775;28;20215;-72
2022/07/16 04:19:00;;;;;;;5.00;4.23;;;;;;;13.14;83.18;98618.38;5062469;28;20253;-73
2022/07/16 04:21:26;;;;;;;4.60;4.10;;;;;;;13.20;82.56;98627.72;5062729;28;20653;-72
2022/07/16 04:23:53;;;;;;;5.63;4.10;;;;;;;13.15;82.95;98621.88;5066122;28;20218;-73
2022/07/16 04:26:20;;;;;;;6.70;4.30;;;;;;;13.19;82.92;98628.63;5066495;28;20242;-73
2022/07/16 04:28:46;;;;;;;4.47;3.70;;;;;;;13.22;82.47;98628.44;5054175;28;20218;-73
2022/07/16 04:31:13;;;;;;;4.97;3.97;;;;;;;13.30;81.89;98620.75;5061879;28;20215;-73
2022/07/16 04:33:41;;;;;;;4.37;3.67;;;;;;;13.28;81.52;98623.53;5064131;28;20215;-72
2022/07/16 04:36:08;;;;;;;4.77;3.63;;;;;;;13.30;81.84;98623.41;5062023;28;20204;-72
2022/07/16 04:38:35;;;;;;;5.63;4.17;;;;;;;13.32;82.32;98630.31;5061781;28;20247;-72
2022/07/16 04:41:01;;;;;;;4.73;4.23;;;;;;;13.44;82.33;98631.25;5062058;28;20212;-72
2022/07/16 04:43:28;;;;;;;4.97;4.37;;;;;;;13.55;82.53;98637.47;5065481;28;20207;-72
2022/07/16 04:45:54;;;;;;;5.50;4.10;;;;;;;13.56;83.10;98638.31;5061400;28;20265;-72
2022/07/16 04:48:21;;;;;;;4.70;4.13;;;;;;;13.62;82.95;98633.38;5061989;28;20251;-72
2022/07/16 04:50:49;;;;;;;5.53;5.00;;;;;;;13.80;84.32;98626.72;5061660;28;20216;-73
2022/07/16 04:53:16;;;;;;;7.60;5.87;;;;;;;13.95;84.53;98635.38;5064715;28;20219;-73
2022/07/16 04:55:42;;;;;;;7.17;5.57;;;;;;;13.90;84.55;98633.06;5065616;28;20221;-73
2022/07/16 04:58:09;;;;;;;7.43;6.07;;;;;;;13.85;85.22;98629.03;5062596;28;20247;-73
2022/07/16 05:00:36;;;;;;;7.20;5.90;;;;;;;13.88;87.81;98634.13;5059907;28;20212;-74
2022/07/16 05:03:03;;;;;;;7.70;6.13;;;;;;;13.99;88.50;98631.53;5064383;28;20219;-73
2022/07/16 05:05:32;;;;;;;6.77;6.13;;;;;;;14.13;88.52;98633.97;5065431;28;20302;-74
2022/07/16 05:08:00;;;;;;;6.30;5.70;;;;;;;14.27;87.00;98637.31;5062382;28;20215;-73
2022/07/16 05:10:28;;;;;;;8.40;6.90;;;;;;;14.53;84.94;98632.66;5061515;28;20212;-73
2022/07/16 05:12:54;;;;;;;7.43;5.50;;;;;;;14.74;83.29;98639.81;5064247;28;20276;-73
2022/07/16 05:15:21;;;;;;;6.97;5.63;;;;;;;15.26;81.26;98633.88;5064262;28;20222;-73
2022/07/16 05:17:48;;;;;;;8.70;5.97;;;;;;;16.26;76.56;98639.69;5062472;28;20231;-73
2022/07/16 05:20:15;;;;;;;6.50;5.10;;;;;;;17.34;70.77;98643.56;5061101;28;20216;-73
2022/07/16 05:22:41;;;;;;;8.77;4.77;;;;;;;18.29;64.91;98634.84;5064060;28;20212;-73
2022/07/16 05:25:11;;;;;;;6.23;5.53;;;;;;;19.14;60.98;98632.00;5064693;28;20211;-73
2022/07/16 05:27:38;;;;;;;6.33;5.73;;;;;;;19.90;58.54;98639.66;5061436;28;20702;-73
2022/07/16 05:30:06;;;;;;;7.37;6.50;;;;;;;20.57;56.16;98639.13;5061077;28;20669;-73
2022/07/16 05:32:32;;;;;;;9.30;6.03;;;;;;;21.14;54.54;98639.41;5063638;28;20677;-73
2022/07/16 05:34:59;;;;;;;7.70;5.87;;;;;;;21.70;52.70;98646.94;5064788;28;20279;-73
2022/07/16 05:37:25;;;;;;;8.47;5.80;;;;;;;22.28;50.73;98640.50;5062681;28;20207;-73
2022/07/16 05:39:52;;;;;;;7.57;5.33;;;;;;;22.78;49.21;98643.91;5061176;28;20327;-73
2022/07/16 05:42:20;;;;;;;6.30;4.90;;;;;;;23.29;47.80;98638.09;5063448;28;20582;-73
2022/07/16 05:44:46;;;;;;;7.07;5.63;;;;;;;23.77;46.59;98645.16;5065044;28;20586;-73
2022/07/16 05:47:13;;;;;;;4.97;4.47;;;;;;;24.17;45.66;98650.34;5062922;28;20219;-73
2022/07/16 05:49:39;;;;;;;6.73;5.03;;;;;;;24.46;44.17;98648.66;5061020;28;20218;-72
2022/07/16 05:52:06;;;;;;;6.67;5.47;;;;;;;24.76;43.49;98653.13;5061339;28;20219;-73
2022/07/16 05:54:32;;;;;;;5.43;4.70;;;;;;;24.99;42.71;98653.13;5064519;28;20687;-73
2022/07/16 05:56:59;;;;;;;4.53;4.13;;;;;;;25.24;41.45;98646.47;5063298;28;20216;-73
2022/07/16 05:59:27;;;;;;;5.07;4.27;;;;;;;25.44;41.10;98644.88;5061030;28;20598;-73
2022/07/16 06:01:53;;;;;;;4.60;4.10;;;;;;;25.56;39.96;98644.22;5059142;28;20208;-73
2022/07/16 06:04:20;;;;;;;4.50;4.10;;;;;;;25.71;39.20;98646.91;5064442;28;20211;-75
2022/07/16 06:06:46;;;;;;;4.77;4.00;;;;;;;25.77;39.46;98649.72;5063488;28;20218;-73
2022/07/16 06:09:14;;;;;;;4.33;3.80;;;;;;;26.00;38.74;98652.31;5060770;28;20208;-74
2022/07/16 06:11:41;;;;;;;5.60;4.20;;;;;;;26.06;38.25;98654.25;5061991;28;20265;-74
2022/07/16 06:14:07;;;;;;;4.60;3.93;;;;;;;26.14;38.57;98652.28;5064567;28;20222;-74
2022/07/16 06:16:35;;;;;;;4.57;4.17;;;;;;;26.44;38.42;98658.44;5063516;28;20212;-74
2022/07/16 06:19:02;;;;;;;5.53;4.20;;;;;;;26.71;37.58;98660.41;5059243;28;20578;-73
2022/07/16 06:21:28;;;;;;;4.50;3.67;;;;;;;26.86;37.35;98656.59;5061392;28;20246;-73
2022/07/16 06:23:55;;;;;;;4.33;3.93;;;;;;;26.95;37.00;98655.41;5064628;28;20298;-72
2022/07/16 06:26:21;;;;;;;4.20;3.80;;;;;;;27.06;37.26;98663.00;5064511;28;20218;-72
2022/07/16 06:28:48;;;;;;;4.93;4.23;;;;;;;26.85;37.12;98660.34;5064702;28;20222;-73
2022/07/16 06:31:14;;;;;;;5.17;4.57;;;;;;;26.80;37.50;98654.66;5064706;28;20586;-72
2022/07/16 06:33:42;;;;;;;4.97;3.80;;;;;;;26.78;37.48;98669.44;5068296;28;20211;-73
2022/07/16 06:36:09;;;;;;;4.03;3.63;;;;;;;26.97;37.31;98675.06;5062577;28;20248;-73
2022/07/16 06:38:35;;;;;;;4.27;3.40;;;;;;;27.34;36.96;98666.59;5062529;28;20767;-73
2022/07/16 06:41:02;;;;;;;5.10;4.23;;;;;;;27.56;35.64;98676.34;5063044;28;20472;-73
2022/07/16 06:43:29;;;;;;;4.40;4.00;;;;;;;27.69;36.18;98676.44;5065278;28;20211;-73
2022/07/16 06:45:55;;;;;;;3.42;3.13;;;;;;;27.93;36.11;98675.94;5066312;28;20234;-73
2022/07/16 06:48:22;;;;;;;3.70;3.40;;;;;;;28.20;35.52;98680.47;5062870;28;20231;-73
2022/07/16 06:50:50;;;;;;;4.50;3.55;;;;;;;27.80;35.47;98675.88;5062616;28;20430;-73
2022/07/16 06:53:16;;;;;;;3.67;3.13;;;;;;;27.69;35.76;98671.81;5066109;28;20218;-73
2022/07/16 06:55:43;;;;;;;4.57;3.50;;;;;;;27.60;35.25;98674.91;5066508;28;20215;-73
2022/07/16 06:58:10;;;;;;;2.83;2.63;;;;;;;27.69;35.76;98676.44;5062908;28;20594;-73
2022/07/16 07:00:36;;;;;;;3.57;3.13;;;;;;;28.01;35.99;98686.66;5062709;28;20208;-73
2022/07/16 07:03:03;;;;;;;3.45;2.83;;;;;;;28.15;35.31;98680.22;5065223;28;20211;-73
2022/07/16 07:05:29;;;;;;;3.47;3.13;;;;;;;27.65;35.41;98675.97;5066041;28;20226;-74
2022/07/16 07:07:57;;;;;;;5.10;3.25;;;;;;;27.09;35.92;98684.34;5063777;28;20212;-73
2022/07/16 07:10:24;;;;;;;3.47;2.93;;;;;;;26.15;35.99;98678.34;5060628;28;20339;-73
2022/07/16 07:12:52;;;;;;;4.17;2.73;;;;;;;24.73;37.51;98683.25;5064928;28;20219;-73
2022/07/16 07:15:19;;;;;;;2.60;2.40;;;;;;;23.39;40.23;98683.75;5065921;28;20218;-72
2022/07/16 07:17:45;;;;;;;3.53;2.60;;;;;;;22.61;41.80;98688.03;5060919;28;20668;-72
2022/07/16 07:20:12;;;;;;;4.20;3.13;;;;;;;22.03;43.34;98683.69;5060757;28;20242;-76
2022/07/16 07:22:39;;;;;;;3.90;2.90;;;;;;;21.83;44.23;98690.34;5062035;28;20227;-75
2022/07/16 07:25:08;;;;;;;3.50;3.13;;;;;;;21.57;45.04;98685.00;5064600;28;20442;-72
2022/07/16 07:27:34;;;;;;;3.27;2.90;;;;;;;21.45;46.22;98693.53;5063273;28;20211;-73
2022/07/16 07:30:01;;;;;;;5.03;3.27;;;;;;;21.32;47.25;98693.94;5062196;28;20215;-75
2022/07/16 07:32:28;;;;;;;3.20;2.90;;;;;;;21.23;48.03;98697.59;5064516;28;20580;-74
2022/07/16 07:34:54;;;;;;;7.00;6.30;;;;;;;21.22;47.23;98695.88;5065564;28;20211;-74
2022/07/16 07:37:21;;;;;;;3.57;3.27;;;;;;;21.31;47.64;98694.97;5062029;28;20207;-74
2022/07/16 07:39:47;;;;;;;3.10;2.60;;;;;;;21.43;44.86;98691.00;5061180;28;20242;-74
2022/07/16 07:42:15;;;;;;;3.00;2.17;;;;;;;21.34;44.67;98683.88;5063665;28;20208;-74
2022/07/16 07:44:42;;;;;;;2.60;2.40;;;;;;;21.22;44.08;98690.50;5065406;28;20223;-75
2022/07/16 07:47:08;;;;;;;4.47;2.40;;;;;;;21.18;44.01;98688.31;5064015;28;20221;-75
2022/07/16 07:49:35;;;;;;;3.43;2.27;;;;;;;21.07;44.33;98694.81;5061884;28;20219;-74
2022/07/16 07:52:02;;;;;;;4.13;2.17;;;;;;;21.07;44.25;98697.50;5063277;28;20215;-73
2022/07/16 07:54:29;;;;;;;3.30;2.30;;;;;;;21.13;43.98;98691.47;5065313;28;20307;-72
2022/07/16 07:56:55;;;;;;;2.93;2.30;;;;;;;21.20;43.85;98695.22;5064027;28;20692;-74
2022/07/16 07:59:23;;;;;;;3.83;2.03;;;;;;;21.25;44.11;98684.84;5061725;28;20236;-73
2022/07/16 08:01:49;;;;;;;3.03;2.43;;;;;;;21.29;43.92;98688.91;5062977;28;20520;-73
2022/07/16 08:04:16;;;;;;;2.30;2.10;;;;;;;21.23;42.70;98686.84;5063617;28;20219;-73
2022/07/16 08:06:43;;;;;;;3.47;2.17;;;;;;;21.32;43.51;98680.50;5064407;28;20269;-73
2022/07/16 08:09:09;;;;;;;2.57;2.20;;;;;;;21.34;43.56;98693.78;5061546;28;20209;-74
2022/07/16 08:11:36;;;;;;;2.63;2.10;;;;;;;21.31;43.97;98686.03;5062124;28;20591;-73
2022/07/16 08:14:02;;;;;;;3.20;2.00;;;;;;;21.55;42.16;98676.25;5064809;28;20214;-73
2022/07/16 08:16:30;;;;;;;2.60;1.90;;;;;;;21.49;43.15;98686.81;5064677;28;20211;-73
2022/07/16 08:18:56;;;;;;;4.50;2.00;;;;;;;21.47;42.46;98684.25;5061245;28;20251;-73
2022/07/16 08:21:23;;;;;;;2.63;1.90;;;;;;;21.54;42.12;98684.47;5061448;28;20712;-73
2022/07/16 08:26:34;;;;;;;3.63;2.10;;;;;;;21.70;41.08;98682.72;5062148;28;20218;-73
2022/07/16 08:29:00;;;;;;;3.50;1.90;;;;;;;21.68;43.11;98683.91;5061060;28;20573;-73
2022/07/16 08:31:27;;;;;;;2.70;2.10;;;;;;;21.90;43.28;98675.25;5061560;28;20226;-74
2022/07/16 08:33:55;;;;;;;3.40;2.10;;;;;;;22.02;40.88;98682.88;5064533;28;20222;-73
2022/07/16 08:36:21;;;;;;;4.37;2.00;;;;;;;21.94;41.32;98677.44;5058647;28;20657;-73
2022/07/16 08:38:48;;;;;;;2.07;1.87;;;;;;;21.98;41.42;98677.94;5060795;28;20218;-73
2022/07/16 08:41:15;;;;;;;2.37;1.60;;;;;;;22.14;40.33;98684.22;5062724;28;20226;-73
2022/07/16 08:43:43;;;;;;;1.83;1.60;;;;;;;22.17;38.94;98683.91;5064485;28;20218;-73
2022/07/16 08:46:10;;;;;;;2.70;1.80;;;;;;;22.19;39.99;98684.56;5062649;28;20223;-73
2022/07/16 08:48:38;;;;;;;2.30;2.10;;;;;;;22.23;41.13;98687.75;5060732;28;20220;-73
2022/07/16 08:51:10;;;;;;;2.23;1.90;;;;;;;22.28;41.99;98675.50;5061675;28;20212;-74
2022/07/16 08:53:37;;;;;;;3.77;2.30;;;;;;;22.25;41.43;98667.75;5064037;28;20684;-74
2022/07/16 08:56:04;;;;;;;3.13;1.80;;;;;;;22.27;40.00;98676.53;5061163;28;20393;-73
2022/07/16 08:58:32;;;;;;;3.97;2.53;;;;;;;22.34;41.03;98685.63;5059828;28;20222;-73
2022/07/16 09:01:00;;;;;;;3.60;2.30;;;;;;;22.36;41.00;98683.59;5062582;28;20689;-73
2022/07/16 09:03:26;;;;;;;2.50;2.27;;;;;;;22.47;41.01;98686.00;5063791;28;20695;-74
2022/07/16 09:05:53;;;;;;;2.30;1.97;;;;;;;22.44;40.52;98686.31;5061806;28;20239;-74
2022/07/16 09:08:21;;;;;;;3.27;2.13;;;;;;;22.35;41.03;98687.28;5060407;28;20216;-75
2022/07/16 09:10:48;;;;;;;2.77;1.90;;;;;;;22.57;40.52;98678.59;5062388;28;20303;-74
2022/07/16 09:13:15;;;;;;;2.30;2.00;;;;;;;22.59;40.90;98681.13;5063839;28;20208;-77
2022/07/16 09:15:43;;;;;;;2.93;1.87;;;;;;;22.66;39.61;98691.06;5061960;28;20218;-74
2022/07/16 09:18:16;;;;;;;4.40;1.80;;;;;;;22.61;38.14;98685.31;5060167;28;20224;-76
2022/07/16 09:20:45;;;;;;;2.83;1.60;;;;;;;22.70;38.79;98686.19;5062813;28;20240;-77
2022/07/16 09:23:29;;;;;;;2.03;1.83;;;;;;;22.76;38.69;98680.97;5062058;28;20219;-80
2022/07/16 09:25:58;;;;;;;2.17;1.60;;;;;;;22.80;38.25;98687.69;5053101;28;20215;-78
2022/07/16 09:28:26;;;;;;;2.97;1.70;;;;;;;22.85;37.66;98684.50;5061839;28;20216;-77
2022/07/16 09:30:53;;;;;;;1.80;1.50;;;;;;;22.84;37.67;98693.56;5063483;28;20223;-77
2022/07/16 09:33:23;;;;;;;5.00;1.70;;;;;;;22.95;38.44;98688.69;5062120;28;20215;-80
2022/07/16 09:36:05;;;;;;;1.67;1.50;;;;;;;22.88;37.84;98685.00;5059946;28;20219;-77
2022/07/16 09:38:47;;;;;;;1.83;1.30;;;;;;;22.96;38.92;98687.69;5047806;28;20337;-77
2022/07/16 09:41:14;;;;;;;4.63;1.80;;;;;;;22.96;37.85;98692.22;5061627;28;20231;-76
2022/07/16 09:43:43;;;;;;;2.43;1.60;;;;;;;23.04;36.92;98692.22;5060045;28;20247;-76
2022/07/16 09:46:16;;;;;;;2.90;1.40;;;;;;;23.00;36.61;98689.03;5061624;28;20216;-74
2022/07/16 09:48:44;;;;;;;2.13;1.70;;;;;;;23.18;36.16;98691.56;5063411;28;20715;-77
2022/07/16 09:51:17;;;;;;;2.43;1.47;;;;;;;23.10;36.37;98691.56;5059123;28;20216;-77
2022/07/16 09:53:46;;;;;;;2.73;1.43;;;;;;;23.08;36.64;98690.84;5060037;28;20238;-78
2022/07/16 09:56:15;;;;;;;2.90;1.60;;;;;;;23.14;36.40;98679.38;5047506;28;20215;-77
2022/07/16 09:58:46;;;;;;;1.90;1.27;;;;;;;23.16;36.43;98678.25;5063551;28;20669;-77
2022/07/16 10:01:13;;;;;;;1.90;1.50;;;;;;;23.31;36.54;98692.72;5052471;28;20250;-79
2022/07/16 10:03:40;;;;;;;1.97;1.20;;;;;;;23.23;36.46;98690.03;5064403;28;20306;-79
2022/07/16 10:06:07;;;;;;;2.27;1.50;;;;;;;23.17;36.57;98687.19;5067692;28;20650;-77
2022/07/16 10:08:34;;;;;;;2.73;1.70;;;;;;;23.25;36.42;98677.22;5067042;28;20215;-79
2022/07/16 10:11:00;;;;;;;1.93;1.60;;;;;;;23.13;36.82;98681.25;5063913;28;20223;-79
2022/07/16 10:13:30;;;;;;;3.07;1.60;;;;;;;23.28;37.56;98681.44;5064267;28;20212;-79
2022/07/16 10:15:56;;;;;;;1.83;1.50;;;;;;;23.61;37.46;98691.97;5067623;28;20225;-79
2022/07/16 10:18:40;;;;;;;2.30;1.83;;;;;;;23.41;38.92;98687.97;5065679;28;20219;-79
2022/07/16 10:21:13;;;;;;;1.90;1.50;;;;;;;23.34;37.56;98686.16;5063596;28;20251;-79
2022/07/16 10:23:42;;;;;;;1.77;1.50;;;;;;;23.35;37.47;98683.25;5066823;28;20215;-78
2022/07/16 10:26:17;;;;;;;1.97;1.23;;;;;;;23.44;36.69;98690.31;5067400;28;20214;-80
2022/07/16 10:28:49;;;;;;;1.60;1.50;;;;;;;23.57;36.38;98693.31;5056105;28;20212;-78
2022/07/16 10:31:38;;;;;;;2.17;1.50;;;;;;;23.54;36.84;98682.03;5064525;28;20581;-78
2022/07/16 10:34:41;;;;;;;2.10;1.60;;;;;;;23.59;36.88;98682.34;5066968;28;20689;-78
2022/07/16 10:37:11;;;;;;;2.70;1.27;;;;;;;23.75;36.51;98691.22;5057713;28;20209;-78
2022/07/16 10:40:00;;;;;;;2.37;1.80;;;;;;;24.03;35.38;98689.75;5066854;28;20730;-79
2022/07/16 10:42:27;;;;;;;1.70;1.33;;;;;;;24.00;34.96;98686.56;5055401;28;20213;-78
2022/07/16 10:44:56;;;;;;;2.23;1.53;;;;;;;23.78;35.83;98674.66;5061705;28;20216;-78
2022/07/16 10:47:42;;;;;;;3.70;1.50;;;;;;;23.76;35.89;98679.41;5051678;28;20207;-77
2022/07/16 10:50:20;;;;;;;1.43;1.33;;;;;;;23.94;34.70;98680.03;5064197;28;20222;-77
2022/07/16 10:52:49;;;;;;;1.67;1.57;;;;;;;23.97;33.79;98679.69;5063296;28;20218;-78
2022/07/16 10:55:35;;;;;;;3.77;1.43;;;;;;;24.03;34.22;98678.97;5051267;28;20219;-79
2022/07/16 10:58:03;;;;;;;4.63;1.40;;;;;;;24.08;34.91;98686.56;5064471;28;20220;-79
2022/07/16 11:00:31;;;;;;;2.67;1.43;;;;;;;24.36;33.42;98682.31;5063440;28;20326;-79
2022/07/16 11:03:00;;;;;;;1.93;1.40;;;;;;;24.37;34.18;98678.59;5065782;28;20223;-79
2022/07/16 11:05:28;;;;;;;2.00;1.37;;;;;;;24.41;34.63;98680.78;5066806;28;20298;-78
2022/07/16 11:07:55;;;;;;;1.37;1.27;;;;;;;24.61;33.92;98681.16;5058240;28;20212;-77
2022/07/16 11:10:22;;;;;;;4.73;1.60;;;;;;;24.69;33.35;98687.34;5059640;28;20212;-75
2022/07/16 11:12:49;;;;;;;1.60;1.50;;;;;;;24.73;33.45;98683.25;5063500;28;20272;-75
2022/07/16 11:15:16;;;;;;;1.80;1.47;;;;;;;24.59;33.26;98681.34;5064819;28;20208;-76
2022/07/16 11:17:55;;;;;;;1.70;1.23;;;;;;;24.68;33.59;98696.47;5039216;28;20208;-75
2022/07/16 11:20:34;;;;;;;2.10;1.37;;;;;;;24.45;33.20;98679.38;5053046;28;20244;-78
2022/07/16 11:23:04;;;;;;;2.63;1.43;;;;;;;24.37;34.08;98682.13;5065552;28;20707;-77
2022/07/16 11:25:31;;;;;;;2.87;1.50;;;;;;;24.41;33.36;98688.03;5038706;28;20220;-77
2022/07/16 11:28:01;;;;;;;3.40;1.30;;;;;;;24.34;33.19;98684.38;5033871;28;20217;-77
2022/07/16 11:30:28;;;;;;;1.47;1.20;;;;;;;24.40;33.78;98680.94;5033826;28;20224;-77
2022/07/16 11:32:56;;;;;;;2.17;1.20;;;;;;;24.33;33.62;98682.69;5034763;28;20572;-78
2022/07/16 11:35:23;;;;;;;1.60;1.20;;;;;;;24.25;33.98;98672.75;5035741;28;20216;-76
2022/07/16 11:37:51;;;;;;;2.60;1.30;;;;;;;24.35;33.40;98678.78;5042548;28;20857;-79
2022/07/16 11:40:17;;;;;;;2.30;1.30;;;;;;;24.26;34.25;98682.53;5034241;28;20244;-81
2022/07/16 11:42:44;;;;;;;2.67;1.40;;;;;;;24.57;35.11;98672.56;5033840;28;20223;-79
2022/07/16 11:45:12;;;;;;;1.47;1.37;;;;;;;24.73;34.39;98682.41;5035006;28;20593;-79